createdAt,value
2022-12-25T08:35:22.510Z,96604.00
2022-12-25T08:36:24.867Z,96597.31
2022-12-25T08:37:26.434Z,96608.69
2022-12-25T08:38:28.188Z,96610.00
2022-12-25T08:43:23.682Z,96601.31
2022-12-25T08:44:25.172Z,96604.16
2022-12-25T08:45:32.773Z,96596.63
2022-12-25T08:46:36.817Z,96607.31
2022-12-25T08:49:41.822Z,96602.38
2022-12-25T08:50:47.333Z,96593.16
2022-12-25T08:51:48.812Z,96582.03
2022-12-25T08:52:50.555Z,96588.31
2022-12-25T08:53:53.543Z,96589.63
2022-12-25T08:54:54.975Z,96573.66
2022-12-25T08:56:00.992Z,96571.97
2022-12-25T08:57:03.769Z,96571.97
2022-12-25T08:58:05.101Z,96560.75
2022-12-25T08:59:06.609Z,96555.69
2022-12-25T09:00:09.560Z,96549.88
2022-12-25T09:01:12.411Z,96542.00
2022-12-25T09:02:13.963Z,96550.44
2022-12-25T09:03:15.517Z,96541.41
2022-12-25T09:04:16.983Z,96537.28
2022-12-25T09:05:18.421Z,96537.41
2022-12-25T09:06:19.837Z,96539.16
2022-12-25T09:17:22.866Z,96561.38
2022-12-25T09:18:24.433Z,96568.94
2022-12-25T09:19:25.822Z,96558.72
2022-12-25T09:20:27.190Z,96563.84
2022-12-25T09:21:28.690Z,96567.84
2022-12-25T09:22:30.028Z,96564.72
2022-12-25T09:23:32.005Z,96560.53
2022-12-25T09:24:33.403Z,96571.94
2022-12-25T09:25:34.781Z,96578.47
2022-12-25T09:26:37.188Z,96568.50
2022-12-25T09:27:39.415Z,96575.44
2022-12-25T09:28:46.592Z,96568.63
2022-12-25T09:29:51.822Z,96575.22
2022-12-25T09:30:54.044Z,96568.19
2022-12-25T09:31:55.554Z,96570.72
2022-12-25T09:32:56.908Z,96567.66
2022-12-25T09:33:58.584Z,96563.53
2022-12-25T09:35:00.100Z,96567.59
2022-12-25T09:36:04.461Z,96567.06
2022-12-25T09:37:06.179Z,96574.00
2022-12-25T09:38:07.587Z,96575.16
2022-12-25T09:39:08.959Z,96577.50
2022-12-25T09:40:18.913Z,96577.13
2022-12-25T09:41:28.967Z,96584.56
2022-12-25T09:42:31.719Z,96565.44
2022-12-25T09:43:39.529Z,96569.44
2022-12-25T09:44:45.326Z,96574.28
2022-12-25T09:45:47.329Z,96570.50
2022-12-25T09:46:55.824Z,96569.56
2022-12-25T09:47:57.574Z,96573.16
2022-12-25T09:49:06.013Z,96572.94
2022-12-25T09:50:38.113Z,96559.97
2022-12-25T09:51:43.410Z,96564.47
2022-12-25T09:53:06.132Z,96569.22
2022-12-25T09:54:17.492Z,96563.53
2022-12-25T09:55:21.275Z,96567.44
2022-12-25T09:56:27.330Z,96561.41
2022-12-25T09:57:29.136Z,96559.44
2022-12-25T09:58:33.821Z,96559.31
2022-12-25T09:59:35.697Z,96556.13
2022-12-25T10:01:01.447Z,96546.81
2022-12-25T10:02:40.842Z,96546.78
2022-12-25T10:04:01.798Z,96542.47
2022-12-25T10:05:15.042Z,96540.84
2022-12-25T10:06:24.342Z,96547.53
2022-12-25T10:07:25.662Z,96536.97
2022-12-25T10:08:53.462Z,96533.69
2022-12-25T10:09:59.864Z,96521.34
2022-12-25T10:11:11.305Z,96522.50
2022-12-25T10:12:32.253Z,96518.47
2022-12-25T10:13:51.116Z,96529.09
2022-12-25T10:15:03.552Z,96530.19
2022-12-25T10:16:29.422Z,96530.47
2022-12-25T10:17:52.494Z,96531.44
2022-12-25T10:19:10.794Z,96528.03
2022-12-25T10:20:40.059Z,96527.03
2022-12-25T10:21:42.205Z,96538.91
2022-12-25T10:23:05.918Z,96524.47
2022-12-25T10:24:16.464Z,96527.66
2022-12-25T10:25:24.051Z,96517.41
2022-12-25T10:26:26.616Z,96521.56
2022-12-25T10:27:41.064Z,96526.16
2022-12-25T10:28:53.864Z,96523.25
2022-12-25T10:29:55.315Z,96523.63
2022-12-25T10:31:01.969Z,96523.25
2022-12-25T10:32:04.182Z,96516.88
2022-12-25T10:33:05.568Z,96509.25
2022-12-25T10:34:10.836Z,96520.25
2022-12-25T10:35:14.083Z,96510.19
2022-12-25T10:36:18.879Z,96517.53
2022-12-25T10:37:20.470Z,96513.38
2022-12-25T10:38:22.765Z,96513.56
2022-12-25T10:39:26.097Z,96506.91
2022-12-25T10:41:03.966Z,96508.13
2022-12-25T10:42:17.474Z,96501.88
2022-12-25T10:43:26.797Z,96495.41
2022-12-25T10:44:28.228Z,96492.59
2022-12-25T10:45:29.767Z,96503.53
2022-12-25T10:46:31.309Z,96492.41
2022-12-25T10:47:42.508Z,96490.13
2022-12-25T10:48:50.970Z,96495.47
2022-12-25T10:49:52.911Z,96484.41
2022-12-25T10:50:55.036Z,96487.28
2022-12-25T10:51:56.551Z,96474.25
2022-12-25T10:53:04.846Z,96488.97
2022-12-25T10:54:31.967Z,96478.44
2022-12-25T10:55:33.541Z,96493.59
2022-12-25T10:56:35.010Z,96468.75
2022-12-25T10:57:45.615Z,96475.72
2022-12-25T10:58:46.982Z,96479.56
2022-12-25T11:00:00.446Z,96469.69
2022-12-25T11:01:08.580Z,96483.28
2022-12-25T11:02:12.992Z,96474.53
2022-12-25T11:03:26.407Z,96478.34
2022-12-25T11:04:28.845Z,96467.75
2022-12-25T11:05:32.966Z,96460.31
2022-12-25T11:06:34.614Z,96480.47
2022-12-25T11:07:46.596Z,96472.38
2022-12-25T11:08:53.397Z,96466.03
2022-12-25T11:10:04.708Z,96477.47
2022-12-25T11:11:07.255Z,96465.94
2022-12-25T11:12:19.991Z,96478.53
2022-12-25T11:13:25.041Z,96473.94
2022-12-25T11:14:28.142Z,96479.84
2022-12-25T11:15:49.451Z,96483.22
2022-12-25T11:16:51.018Z,96489.28
2022-12-25T11:17:52.428Z,96479.19
2022-12-25T11:18:54.474Z,96482.16
2022-12-25T11:19:59.005Z,96473.72
2022-12-25T11:21:03.924Z,96475.59
2022-12-25T11:22:17.585Z,96465.03
2022-12-25T11:23:21.320Z,96459.78
2022-12-25T11:24:29.750Z,96458.28
2022-12-25T11:25:31.216Z,96460.47
2022-12-25T11:26:47.003Z,96458.25
2022-12-25T11:28:03.170Z,96458.25
2022-12-25T11:29:23.975Z,96454.69
2022-12-25T11:30:25.481Z,96450.94
2022-12-25T11:31:39.457Z,96451.22
2022-12-25T11:32:48.758Z,96448.28
2022-12-25T11:33:53.049Z,96453.22
2022-12-25T11:34:56.521Z,96452.81
2022-12-25T11:36:00.111Z,96441.09
2022-12-25T11:37:03.079Z,96442.25
2022-12-25T11:38:04.435Z,96434.13
2022-12-25T11:39:20.691Z,96439.94
2022-12-25T11:40:27.428Z,96436.69
2022-12-25T11:41:34.138Z,96431.28
2022-12-25T11:42:40.158Z,96436.97
2022-12-25T11:43:49.199Z,96427.22
2022-12-25T11:44:58.913Z,96426.97
2022-12-25T11:46:33.362Z,96421.81
2022-12-25T11:47:54.213Z,96422.56
2022-12-25T11:49:06.691Z,96402.06
2022-12-25T11:50:30.810Z,96425.56
2022-12-25T11:51:37.390Z,96430.75
2022-12-25T11:52:43.145Z,96421.31
2022-12-25T11:53:53.901Z,96422.28
2022-12-25T11:55:00.130Z,96422.25
2022-12-25T11:56:08.657Z,96417.03
2022-12-25T11:57:11.510Z,96416.16
2022-12-25T11:58:28.105Z,96407.25
2022-12-25T11:59:38.584Z,96398.41
2022-12-25T12:00:42.457Z,96403.88
2022-12-25T12:01:48.840Z,96399.47
2022-12-25T12:03:04.005Z,96402.13
2022-12-25T12:04:25.880Z,96408.81
2022-12-25T12:05:39.030Z,96401.72
2022-12-25T12:06:54.782Z,96399.44
2022-12-25T12:08:01.786Z,96390.47
2022-12-25T12:09:23.575Z,96394.53
2022-12-25T12:10:37.500Z,96383.31
2022-12-25T12:11:49.672Z,96373.72
2022-12-25T12:13:18.219Z,96377.59
2022-12-25T12:14:39.601Z,96388.25
2022-12-25T12:15:46.148Z,96374.88
2022-12-25T12:16:47.836Z,96374.06
2022-12-25T12:17:49.450Z,96371.72
2022-12-25T12:18:57.122Z,96369.47
2022-12-25T12:19:58.916Z,96374.94
2022-12-25T12:21:05.621Z,96370.16
2022-12-25T12:22:07.605Z,96366.81
2022-12-25T12:23:16.573Z,96367.06
2022-12-25T12:24:22.792Z,96372.97
2022-12-25T12:25:25.182Z,96375.13
2022-12-25T12:26:29.692Z,96375.31
2022-12-25T12:27:40.458Z,96375.72
2022-12-25T12:28:47.049Z,96370.25
2022-12-25T12:29:58.625Z,96379.50
2022-12-25T12:31:07.889Z,96377.69
2022-12-25T12:32:47.637Z,96379.34
2022-12-25T12:33:56.212Z,96386.84
2022-12-25T12:34:58.225Z,96390.34
2022-12-25T12:36:01.199Z,96387.41
2022-12-25T12:37:20.007Z,96379.94
2022-12-25T12:38:27.029Z,96394.25
2022-12-25T12:39:35.485Z,96391.63
2022-12-25T12:40:44.027Z,96386.22
2022-12-25T12:41:48.072Z,96388.16
2022-12-25T12:42:50.569Z,96392.59
2022-12-25T12:43:58.728Z,96385.97
2022-12-25T12:45:18.952Z,96386.72
2022-12-25T12:46:30.506Z,96374.56
2022-12-25T12:47:43.129Z,96376.72
2022-12-25T12:48:47.077Z,96368.84
2022-12-25T12:49:57.430Z,96374.56
2022-12-25T12:51:14.185Z,96381.22
2022-12-25T12:52:25.867Z,96377.94
2022-12-25T12:53:30.842Z,96387.69
2022-12-25T12:54:32.614Z,96383.72
2022-12-25T12:55:35.365Z,96376.53
2022-12-25T12:56:37.502Z,96370.44
2022-12-25T12:57:39.737Z,96368.25
2022-12-25T12:58:50.028Z,96370.34
2022-12-25T12:59:51.596Z,96370.97
2022-12-25T13:01:03.630Z,96359.16
2022-12-25T13:02:45.405Z,96356.50
2022-12-25T13:04:13.826Z,96351.56
2022-12-25T13:05:38.171Z,96353.13
2022-12-25T13:06:39.499Z,96356.50
2022-12-25T13:08:01.968Z,96353.50
2022-12-25T13:09:33.122Z,96354.22
2022-12-25T13:10:48.542Z,96347.16
2022-12-25T13:11:50.295Z,96356.63
2022-12-25T13:12:58.390Z,96345.47
2022-12-25T13:14:02.865Z,96356.50
2022-12-25T13:15:11.326Z,96351.69
2022-12-25T13:16:21.564Z,96346.88
2022-12-25T13:17:26.012Z,96361.66
2022-12-25T13:18:27.752Z,96358.03
2022-12-25T13:19:29.278Z,96361.16
2022-12-25T13:20:38.600Z,96361.81
2022-12-25T13:21:40.134Z,96364.88
2022-12-25T13:22:41.543Z,96361.59
2022-12-25T13:23:42.951Z,96366.44
2022-12-25T13:24:55.878Z,96372.03
2022-12-25T13:26:03.360Z,96368.34
2022-12-25T13:27:25.231Z,96371.88
2022-12-25T13:28:35.596Z,96370.22
2022-12-25T13:29:38.995Z,96371.16
2022-12-25T13:30:40.751Z,96363.88
2022-12-25T13:31:42.293Z,96327.81
2022-12-25T13:32:45.689Z,96369.66
2022-12-25T13:33:57.924Z,96370.28
2022-12-25T13:35:00.436Z,96372.75
2022-12-25T13:36:01.928Z,96372.91
2022-12-25T13:37:14.148Z,96383.06
2022-12-25T13:38:17.181Z,96371.28
2022-12-25T13:39:19.046Z,96382.78
2022-12-25T13:40:27.518Z,96373.22
2022-12-25T13:42:00.697Z,96372.16
2022-12-25T13:43:02.205Z,96361.81
2022-12-25T13:44:06.647Z,96375.72
2022-12-25T13:45:13.738Z,96379.50
2022-12-25T13:46:15.894Z,96374.25
2022-12-25T13:47:21.641Z,96356.34
2022-12-25T13:48:25.604Z,96357.63
2022-12-25T13:49:31.191Z,96365.25
2022-12-25T13:50:34.284Z,96362.06
2022-12-25T13:51:36.039Z,96360.56
2022-12-25T13:52:38.410Z,96359.31
2022-12-25T13:53:39.799Z,96353.78
2022-12-25T13:54:53.869Z,96359.53
2022-12-25T13:55:55.948Z,96349.75
2022-12-25T13:56:57.435Z,96358.44
2022-12-25T13:58:01.818Z,96347.72
2022-12-25T13:59:05.060Z,96348.47
2022-12-25T14:00:16.566Z,96347.44
2022-12-25T14:01:18.721Z,96352.78
2022-12-25T14:02:24.696Z,96356.44
2022-12-25T14:03:35.653Z,96360.31
2022-12-25T14:04:44.850Z,96352.28
2022-12-25T14:05:58.790Z,96353.91
2022-12-25T14:07:10.013Z,96348.78
2022-12-25T14:08:24.464Z,96352.72
2022-12-25T14:09:26.042Z,96356.47
2022-12-25T14:10:33.670Z,96358.94
2022-12-25T14:11:35.556Z,96353.13
2022-12-25T14:12:36.941Z,96371.03
2022-12-25T14:13:43.226Z,96362.00
2022-12-25T14:14:44.872Z,96373.28
2022-12-25T14:15:48.045Z,96359.44
2022-12-25T14:16:53.270Z,96358.97
2022-12-25T14:17:54.843Z,96360.25
2022-12-25T14:19:02.387Z,96352.91
2022-12-25T14:20:08.619Z,96351.63
2022-12-25T14:21:23.067Z,96356.13
2022-12-25T14:22:25.524Z,96356.69
2022-12-25T14:23:33.406Z,96356.13
2022-12-25T14:24:35.107Z,96358.09
2022-12-25T14:25:47.163Z,96353.19
2022-12-25T14:26:57.291Z,96354.31
2022-12-25T14:28:05.041Z,96354.81
2022-12-25T14:29:13.961Z,96357.44
2022-12-25T14:30:18.834Z,96351.75
2022-12-25T14:31:21.678Z,96350.25
2022-12-25T14:32:26.551Z,96360.22
2022-12-25T14:33:35.252Z,96356.72
2022-12-25T14:34:37.279Z,96354.41
2022-12-25T14:35:38.815Z,96336.31
2022-12-25T14:36:40.427Z,96362.44
